sensor_id;sensor_type;location;lat;lon;timestamp;temperature;humidity
15115;DHT22;7658;51.456;7.622;2023-11-19T00:00:31;9.60;99.90
15115;DHT22;7658;51.456;7.622;2023-11-19T00:02:57;9.60;99.90
15115;DHT22;7658;51.456;7.622;2023-11-19T00:05:23;9.70;99.90
15115;DHT22;7658;51.456;7.622;2023-11-19T00:07:49;9.70;99.90
15115;DHT22;7658;51.456;7.622;2023-11-19T00:10:16;9.70;99.90
15115;DHT22;7658;51.456;7.622;2023-11-19T00:12:46;9.70;99.90
15115;DHT22;7658;51.456;7.622;2023-11-19T00:15:13;9.80;99.90
15115;DHT22;7658;51.456;7.622;2023-11-19T00:17:43;9.80;99.90
15115;DHT22;7658;51.456;7.622;2023-11-19T00:20:14;9.80;99.90
15115;DHT22;7658;51.456;7.622;2023-11-19T00:22:41;9.80;99.90
15115;DHT22;7658;51.456;7.622;2023-11-19T00:25:11;9.90;99.90
15115;DHT22;7658;51.456;7.622;2023-11-19T00:27:36;10.00;99.90
15115;DHT22;7658;51.456;7.622;2023-11-19T00:30:06;10.10;99.90
15115;DHT22;7658;51.456;7.622;2023-11-19T00:32:32;10.20;99.90
15115;DHT22;7658;51.456;7.622;2023-11-19T00:34:58;10.20;99.90
15115;DHT22;7658;51.456;7.622;2023-11-19T00:37:24;10.10;99.90
15115;DHT22;7658;51.456;7.622;2023-11-19T00:39:50;10.10;99.90
15115;DHT22;7658;51.456;7.622;2023-11-19T00:42:17;10.10;99.90
15115;DHT22;7658;51.456;7.622;2023-11-19T00:44:43;10.10;99.90
15115;DHT22;7658;51.456;7.622;2023-11-19T00:47:09;10.20;99.90
15115;DHT22;7658;51.456;7.622;2023-11-19T00:49:34;10.20;99.90
15115;DHT22;7658;51.456;7.622;2023-11-19T00:52:00;10.20;99.90
15115;DHT22;7658;51.456;7.622;2023-11-19T00:54:27;10.20;99.90
15115;DHT22;7658;51.456;7.622;2023-11-19T00:56:53;10.30;99.90
15115;DHT22;7658;51.456;7.622;2023-11-19T00:59:19;10.30;99.90
15115;DHT22;7658;51.456;7.622;2023-11-19T01:01:45;10.30;99.90
15115;DHT22;7658;51.456;7.622;2023-11-19T01:04:14;10.30;99.90
15115;DHT22;7658;51.456;7.622;2023-11-19T01:06:40;10.40;99.90
15115;DHT22;7658;51.456;7.622;2023-11-19T01:09:08;10.50;99.90
15115;DHT22;7658;51.456;7.622;2023-11-19T01:11:34;10.50;99.90
15115;DHT22;7658;51.456;7.622;2023-11-19T01:14:01;10.60;99.90
15115;DHT22;7658;51.456;7.622;2023-11-19T01:16:26;10.50;99.90
15115;DHT22;7658;51.456;7.622;2023-11-19T01:18:52;10.50;99.90
15115;DHT22;7658;51.456;7.622;2023-11-19T01:21:18;10.50;99.90
15115;DHT22;7658;51.456;7.622;2023-11-19T01:23:45;10.60;99.90
15115;DHT22;7658;51.456;7.622;2023-11-19T01:26:12;10.70;99.90
15115;DHT22;7658;51.456;7.622;2023-11-19T01:28:38;10.70;99.90
15115;DHT22;7658;51.456;7.622;2023-11-19T01:31:15;10.80;99.90
15115;DHT22;7658;51.456;7.622;2023-11-19T01:33:40;10.80;99.90
15115;DHT22;7658;51.456;7.622;2023-11-19T01:36:07;10.90;99.90
15115;DHT22;7658;51.456;7.622;2023-11-19T01:38:34;11.00;99.90
15115;DHT22;7658;51.456;7.622;2023-11-19T01:41:00;11.10;99.90
15115;DHT22;7658;51.456;7.622;2023-11-19T01:43:38;11.10;99.90
15115;DHT22;7658;51.456;7.622;2023-11-19T01:46:06;11.10;99.90
15115;DHT22;7658;51.456;7.622;2023-11-19T01:48:36;11.10;99.90
15115;DHT22;7658;51.456;7.622;2023-11-19T01:51:03;11.10;99.90
15115;DHT22;7658;51.456;7.622;2023-11-19T01:53:30;11.10;99.90
15115;DHT22;7658;51.456;7.622;2023-11-19T01:55:57;11.10;99.90
15115;DHT22;7658;51.456;7.622;2023-11-19T01:58:23;11.10;99.90
15115;DHT22;7658;51.456;7.622;2023-11-19T02:00:49;11.00;99.90
15115;DHT22;7658;51.456;7.622;2023-11-19T02:03:16;11.00;99.90
15115;DHT22;7658;51.456;7.622;2023-11-19T02:05:42;11.00;99.90
15115;DHT22;7658;51.456;7.622;2023-11-19T02:08:08;11.00;99.90
15115;DHT22;7658;51.456;7.622;2023-11-19T02:10:34;11.00;99.90
15115;DHT22;7658;51.456;7.622;2023-11-19T02:13:01;10.90;99.90
15115;DHT22;7658;51.456;7.622;2023-11-19T02:15:27;10.90;99.90
15115;DHT22;7658;51.456;7.622;2023-11-19T02:17:53;10.90;99.90
15115;DHT22;7658;51.456;7.622;2023-11-19T02:20:19;10.80;99.90
15115;DHT22;7658;51.456;7.622;2023-11-19T02:22:49;10.80;99.90
15115;DHT22;7658;51.456;7.622;2023-11-19T02:25:28;10.80;99.90
15115;DHT22;7658;51.456;7.622;2023-11-19T02:28:00;10.80;99.90
15115;DHT22;7658;51.456;7.622;2023-11-19T02:30:26;10.90;99.90
15115;DHT22;7658;51.456;7.622;2023-11-19T02:32:56;10.90;99.90
15115;DHT22;7658;51.456;7.622;2023-11-19T02:35:23;10.90;99.90
15115;DHT22;7658;51.456;7.622;2023-11-19T02:37:49;10.90;99.90
15115;DHT22;7658;51.456;7.622;2023-11-19T02:40:15;11.00;99.90
15115;DHT22;7658;51.456;7.622;2023-11-19T02:42:41;11.00;99.90
15115;DHT22;7658;51.456;7.622;2023-11-19T02:45:08;11.00;99.90
15115;DHT22;7658;51.456;7.622;2023-11-19T02:47:40;11.10;99.90
15115;DHT22;7658;51.456;7.622;2023-11-19T02:50:06;11.20;99.90
15115;DHT22;7658;51.456;7.622;2023-11-19T02:52:39;11.30;99.90
15115;DHT22;7658;51.456;7.622;2023-11-19T02:55:05;11.20;99.90
15115;DHT22;7658;51.456;7.622;2023-11-19T02:57:35;11.30;99.90
15115;DHT22;7658;51.456;7.622;2023-11-19T03:00:02;11.30;99.90
15115;DHT22;7658;51.456;7.622;2023-11-19T03:02:39;11.30;99.90
15115;DHT22;7658;51.456;7.622;2023-11-19T03:05:10;11.20;99.90
15115;DHT22;7658;51.456;7.622;2023-11-19T03:07:37;11.20;99.90
15115;DHT22;7658;51.456;7.622;2023-11-19T03:10:03;11.30;99.90
15115;DHT22;7658;51.456;7.622;2023-11-19T03:12:31;11.20;99.90
15115;DHT22;7658;51.456;7.622;2023-11-19T03:14:57;11.30;99.90
15115;DHT22;7658;51.456;7.622;2023-11-19T03:17:22;11.30;99.90
15115;DHT22;7658;51.456;7.622;2023-11-19T03:19:49;11.30;99.90
15115;DHT22;7658;51.456;7.622;2023-11-19T03:22:15;11.30;99.90
15115;DHT22;7658;51.456;7.622;2023-11-19T03:24:41;11.40;99.90
15115;DHT22;7658;51.456;7.622;2023-11-19T03:27:07;11.40;99.90
15115;DHT22;7658;51.456;7.622;2023-11-19T03:29:32;11.50;99.90
15115;DHT22;7658;51.456;7.622;2023-11-19T03:31:58;11.50;99.90
15115;DHT22;7658;51.456;7.622;2023-11-19T03:34:24;11.50;99.90
15115;DHT22;7658;51.456;7.622;2023-11-19T03:36:50;11.60;99.90
15115;DHT22;7658;51.456;7.622;2023-11-19T03:39:15;11.60;99.90
15115;DHT22;7658;51.456;7.622;2023-11-19T03:41:41;11.60;99.90
15115;DHT22;7658;51.456;7.622;2023-11-19T03:44:07;11.60;99.90
15115;DHT22;7658;51.456;7.622;2023-11-19T03:46:32;11.70;99.90
15115;DHT22;7658;51.456;7.622;2023-11-19T03:48:58;11.70;99.90
15115;DHT22;7658;51.456;7.622;2023-11-19T03:51:24;11.80;99.90
15115;DHT22;7658;51.456;7.622;2023-11-19T03:53:50;11.70;99.90
15115;DHT22;7658;51.456;7.622;2023-11-19T03:56:16;11.90;99.90
15115;DHT22;7658;51.456;7.622;2023-11-19T03:58:42;11.90;99.90
15115;DHT22;7658;51.456;7.622;2023-11-19T04:01:12;11.90;99.90
15115;DHT22;7658;51.456;7.622;2023-11-19T04:03:40;12.00;99.90
15115;DHT22;7658;51.456;7.622;2023-11-19T04:06:06;12.00;99.90
15115;DHT22;7658;51.456;7.622;2023-11-19T04:08:32;12.10;99.90
15115;DHT22;7658;51.456;7.622;2023-11-19T04:10:58;12.10;99.90
15115;DHT22;7658;51.456;7.622;2023-11-19T04:13:24;12.20;99.90
15115;DHT22;7658;51.456;7.622;2023-11-19T04:15:50;12.20;99.90
15115;DHT22;7658;51.456;7.622;2023-11-19T04:18:16;12.20;99.90
15115;DHT22;7658;51.456;7.622;2023-11-19T04:20:42;12.20;99.90
15115;DHT22;7658;51.456;7.622;2023-11-19T04:23:10;12.20;99.90
15115;DHT22;7658;51.456;7.622;2023-11-19T04:25:36;12.20;99.90
15115;DHT22;7658;51.456;7.622;2023-11-19T04:28:02;12.20;99.90
15115;DHT22;7658;51.456;7.622;2023-11-19T04:30:28;12.20;99.90
15115;DHT22;7658;51.456;7.622;2023-11-19T04:32:54;12.20;99.90
15115;DHT22;7658;51.456;7.622;2023-11-19T04:35:20;12.20;99.90
15115;DHT22;7658;51.456;7.622;2023-11-19T04:37:46;12.20;99.90
15115;DHT22;7658;51.456;7.622;2023-11-19T04:40:13;12.10;99.90
15115;DHT22;7658;51.456;7.622;2023-11-19T04:42:38;12.10;99.90
15115;DHT22;7658;51.456;7.622;2023-11-19T04:45:07;12.10;99.90
15115;DHT22;7658;51.456;7.622;2023-11-19T04:47:36;12.00;99.90
15115;DHT22;7658;51.456;7.622;2023-11-19T04:50:02;11.90;99.90
15115;DHT22;7658;51.456;7.622;2023-11-19T04:52:29;12.00;99.90
15115;DHT22;7658;51.456;7.622;2023-11-19T04:54:54;12.00;99.90
15115;DHT22;7658;51.456;7.622;2023-11-19T04:57:20;12.00;99.90
15115;DHT22;7658;51.456;7.622;2023-11-19T04:59:46;12.00;99.90
15115;DHT22;7658;51.456;7.622;2023-11-19T05:02:12;12.00;99.90
15115;DHT22;7658;51.456;7.622;2023-11-19T05:04:42;12.00;99.90
15115;DHT22;7658;51.456;7.622;2023-11-19T05:07:09;12.00;99.90
15115;DHT22;7658;51.456;7.622;2023-11-19T05:09:35;12.00;99.90
15115;DHT22;7658;51.456;7.622;2023-11-19T05:12:01;12.00;99.90
15115;DHT22;7658;51.456;7.622;2023-11-19T05:14:27;12.00;99.90
15115;DHT22;7658;51.456;7.622;2023-11-19T05:16:53;12.00;99.90
15115;DHT22;7658;51.456;7.622;2023-11-19T05:19:19;12.00;99.90
15115;DHT22;7658;51.456;7.622;2023-11-19T05:21:45;12.00;99.90
15115;DHT22;7658;51.456;7.622;2023-11-19T05:24:11;12.00;99.90
15115;DHT22;7658;51.456;7.622;2023-11-19T05:26:39;12.00;99.90
15115;DHT22;7658;51.456;7.622;2023-11-19T05:29:06;12.10;99.90
15115;DHT22;7658;51.456;7.622;2023-11-19T05:31:31;12.00;99.90
15115;DHT22;7658;51.456;7.622;2023-11-19T05:33:57;12.00;99.90
15115;DHT22;7658;51.456;7.622;2023-11-19T05:36:23;12.10;99.90
15115;DHT22;7658;51.456;7.622;2023-11-19T05:38:49;12.10;99.90
15115;DHT22;7658;51.456;7.622;2023-11-19T05:41:14;12.10;99.90
15115;DHT22;7658;51.456;7.622;2023-11-19T05:43:40;12.00;99.90
15115;DHT22;7658;51.456;7.622;2023-11-19T05:46:07;12.20;99.90
15115;DHT22;7658;51.456;7.622;2023-11-19T05:48:33;12.20;99.90
15115;DHT22;7658;51.456;7.622;2023-11-19T05:50:58;12.20;99.90
15115;DHT22;7658;51.456;7.622;2023-11-19T05:53:25;12.20;99.90
15115;DHT22;7658;51.456;7.622;2023-11-19T05:55:51;12.20;99.90
15115;DHT22;7658;51.456;7.622;2023-11-19T05:58:26;12.20;99.90
15115;DHT22;7658;51.456;7.622;2023-11-19T06:00:57;12.20;99.90
15115;DHT22;7658;51.456;7.622;2023-11-19T06:03:23;12.20;99.90
15115;DHT22;7658;51.456;7.622;2023-11-19T06:05:49;12.20;99.90
15115;DHT22;7658;51.456;7.622;2023-11-19T06:08:15;12.20;99.90
15115;DHT22;7658;51.456;7.622;2023-11-19T06:10:42;12.10;99.90
15115;DHT22;7658;51.456;7.622;2023-11-19T06:13:08;12.10;99.90
15115;DHT22;7658;51.456;7.622;2023-11-19T06:15:36;12.20;99.90
15115;DHT22;7658;51.456;7.622;2023-11-19T06:18:02;12.30;99.90
15115;DHT22;7658;51.456;7.622;2023-11-19T06:20:32;12.30;99.90
15115;DHT22;7658;51.456;7.622;2023-11-19T06:22:59;12.20;99.90
15115;DHT22;7658;51.456;7.622;2023-11-19T06:25:25;12.30;99.90
15115;DHT22;7658;51.456;7.622;2023-11-19T06:27:51;12.20;99.90
15115;DHT22;7658;51.456;7.622;2023-11-19T06:30:18;12.20;99.90
15115;DHT22;7658;51.456;7.622;2023-11-19T06:32:44;12.20;99.90
15115;DHT22;7658;51.456;7.622;2023-11-19T06:35:10;12.20;99.90
15115;DHT22;7658;51.456;7.622;2023-11-19T06:37:38;12.20;99.90
15115;DHT22;7658;51.456;7.622;2023-11-19T06:40:04;12.20;99.90
15115;DHT22;7658;51.456;7.622;2023-11-19T06:42:31;12.20;99.90
15115;DHT22;7658;51.456;7.622;2023-11-19T06:44:57;12.20;99.90
15115;DHT22;7658;51.456;7.622;2023-11-19T06:47:26;12.20;99.90
15115;DHT22;7658;51.456;7.622;2023-11-19T06:49:53;12.20;99.90
15115;DHT22;7658;51.456;7.622;2023-11-19T06:52:18;12.20;99.90
15115;DHT22;7658;51.456;7.622;2023-11-19T06:54:44;12.20;99.90
15115;DHT22;7658;51.456;7.622;2023-11-19T06:57:13;12.20;99.90
15115;DHT22;7658;51.456;7.622;2023-11-19T06:59:39;12.00;99.90
15115;DHT22;7658;51.456;7.622;2023-11-19T07:02:06;12.00;99.90
15115;DHT22;7658;51.456;7.622;2023-11-19T07:04:32;12.00;99.90
15115;DHT22;7658;51.456;7.622;2023-11-19T07:06:59;12.00;99.90
15115;DHT22;7658;51.456;7.622;2023-11-19T07:09:27;12.00;99.90
15115;DHT22;7658;51.456;7.622;2023-11-19T07:11:53;12.00;99.90
15115;DHT22;7658;51.456;7.622;2023-11-19T07:14:19;12.00;99.90
15115;DHT22;7658;51.456;7.622;2023-11-19T07:16:45;12.10;99.90
15115;DHT22;7658;51.456;7.622;2023-11-19T07:19:11;12.00;99.90
15115;DHT22;7658;51.456;7.622;2023-11-19T07:21:41;12.00;99.90
15115;DHT22;7658;51.456;7.622;2023-11-19T07:24:10;12.00;99.90
15115;DHT22;7658;51.456;7.622;2023-11-19T07:26:42;12.00;99.90
15115;DHT22;7658;51.456;7.622;2023-11-19T07:29:08;12.00;99.90
15115;DHT22;7658;51.456;7.622;2023-11-19T07:31:34;12.00;99.90
15115;DHT22;7658;51.456;7.622;2023-11-19T07:33:59;12.00;99.90
15115;DHT22;7658;51.456;7.622;2023-11-19T07:36:25;12.00;99.90
15115;DHT22;7658;51.456;7.622;2023-11-19T07:38:51;12.00;99.90
15115;DHT22;7658;51.456;7.622;2023-11-19T07:41:17;11.90;99.90
15115;DHT22;7658;51.456;7.622;2023-11-19T07:43:45;11.90;99.90
15115;DHT22;7658;51.456;7.622;2023-11-19T07:46:15;11.80;99.90
15115;DHT22;7658;51.456;7.622;2023-11-19T07:48:41;11.80;99.90
15115;DHT22;7658;51.456;7.622;2023-11-19T07:51:08;11.80;99.90
15115;DHT22;7658;51.456;7.622;2023-11-19T07:53:34;11.80;99.90
15115;DHT22;7658;51.456;7.622;2023-11-19T07:56:00;11.70;99.90
15115;DHT22;7658;51.456;7.622;2023-11-19T07:58:26;11.70;99.90
15115;DHT22;7658;51.456;7.622;2023-11-19T08:00:52;11.70;99.90
15115;DHT22;7658;51.456;7.622;2023-11-19T08:03:18;11.70;99.90
15115;DHT22;7658;51.456;7.622;2023-11-19T08:05:49;11.70;99.90
15115;DHT22;7658;51.456;7.622;2023-11-19T08:08:16;11.80;99.90
15115;DHT22;7658;51.456;7.622;2023-11-19T08:10:42;11.80;99.90
15115;DHT22;7658;51.456;7.622;2023-11-19T08:13:11;11.80;99.90
15115;DHT22;7658;51.456;7.622;2023-11-19T08:15:36;11.70;99.90
15115;DHT22;7658;51.456;7.622;2023-11-19T08:18:02;11.60;99.90
15115;DHT22;7658;51.456;7.622;2023-11-19T08:20:28;11.60;99.90
15115;DHT22;7658;51.456;7.622;2023-11-19T08:22:54;11.60;99.90
15115;DHT22;7658;51.456;7.622;2023-11-19T08:25:20;11.70;99.90
15115;DHT22;7658;51.456;7.622;2023-11-19T08:27:45;11.70;99.90
15115;DHT22;7658;51.456;7.622;2023-11-19T08:30:12;11.70;99.90
15115;DHT22;7658;51.456;7.622;2023-11-19T08:32:38;11.60;99.90
15115;DHT22;7658;51.456;7.622;2023-11-19T08:35:04;11.70;99.90
15115;DHT22;7658;51.456;7.622;2023-11-19T08:37:31;11.70;99.90
15115;DHT22;7658;51.456;7.622;2023-11-19T08:39:56;11.60;99.90
15115;DHT22;7658;51.456;7.622;2023-11-19T08:42:22;11.70;99.90
15115;DHT22;7658;51.456;7.622;2023-11-19T08:44:51;11.80;99.90
15115;DHT22;7658;51.456;7.622;2023-11-19T08:47:20;11.80;99.90
15115;DHT22;7658;51.456;7.622;2023-11-19T08:49:47;11.90;99.90
15115;DHT22;7658;51.456;7.622;2023-11-19T08:52:13;11.90;99.90
15115;DHT22;7658;51.456;7.622;2023-11-19T08:54:42;11.90;99.90
15115;DHT22;7658;51.456;7.622;2023-11-19T08:57:08;11.90;99.90
15115;DHT22;7658;51.456;7.622;2023-11-19T08:59:35;11.90;99.90
15115;DHT22;7658;51.456;7.622;2023-11-19T09:02:04;11.90;99.90
15115;DHT22;7658;51.456;7.622;2023-11-19T09:04:30;11.90;99.90
15115;DHT22;7658;51.456;7.622;2023-11-19T09:06:57;11.90;99.90
15115;DHT22;7658;51.456;7.622;2023-11-19T09:09:23;11.90;99.90
15115;DHT22;7658;51.456;7.622;2023-11-19T09:11:49;12.00;99.90
15115;DHT22;7658;51.456;7.622;2023-11-19T09:14:15;12.00;99.90
15115;DHT22;7658;51.456;7.622;2023-11-19T09:16:41;12.10;99.90
15115;DHT22;7658;51.456;7.622;2023-11-19T09:19:07;12.10;99.90
15115;DHT22;7658;51.456;7.622;2023-11-19T09:21:32;12.10;99.90
15115;DHT22;7658;51.456;7.622;2023-11-19T09:24:02;12.10;99.90
15115;DHT22;7658;51.456;7.622;2023-11-19T09:26:27;12.20;99.90
15115;DHT22;7658;51.456;7.622;2023-11-19T09:28:53;12.20;99.90
15115;DHT22;7658;51.456;7.622;2023-11-19T09:31:19;12.10;99.90
15115;DHT22;7658;51.456;7.622;2023-11-19T09:33:45;12.20;99.90
15115;DHT22;7658;51.456;7.622;2023-11-19T09:36:14;12.20;99.90
15115;DHT22;7658;51.456;7.622;2023-11-19T09:38:40;12.20;99.90
15115;DHT22;7658;51.456;7.622;2023-11-19T09:41:06;12.20;99.90
15115;DHT22;7658;51.456;7.622;2023-11-19T09:43:36;12.20;99.90
15115;DHT22;7658;51.456;7.622;2023-11-19T09:46:06;12.20;99.90
15115;DHT22;7658;51.456;7.622;2023-11-19T09:48:37;12.20;99.90
15115;DHT22;7658;51.456;7.622;2023-11-19T09:51:04;12.20;99.90
15115;DHT22;7658;51.456;7.622;2023-11-19T09:53:31;12.20;99.90
15115;DHT22;7658;51.456;7.622;2023-11-19T09:56:05;12.20;99.90
15115;DHT22;7658;51.456;7.622;2023-11-19T09:58:32;12.20;99.90
15115;DHT22;7658;51.456;7.622;2023-11-19T10:00:59;12.20;99.90
15115;DHT22;7658;51.456;7.622;2023-11-19T10:03:27;12.30;99.90
15115;DHT22;7658;51.456;7.622;2023-11-19T10:05:55;12.30;99.90
15115;DHT22;7658;51.456;7.622;2023-11-19T10:08:22;12.40;99.90
15115;DHT22;7658;51.456;7.622;2023-11-19T10:10:48;12.50;99.90
15115;DHT22;7658;51.456;7.622;2023-11-19T10:13:14;12.50;99.90
15115;DHT22;7658;51.456;7.622;2023-11-19T10:15:40;12.50;99.90
15115;DHT22;7658;51.456;7.622;2023-11-19T10:18:07;12.60;99.90
15115;DHT22;7658;51.456;7.622;2023-11-19T10:20:36;12.60;99.90
15115;DHT22;7658;51.456;7.622;2023-11-19T10:23:02;12.70;99.90
15115;DHT22;7658;51.456;7.622;2023-11-19T10:25:29;12.80;99.90
15115;DHT22;7658;51.456;7.622;2023-11-19T10:27:56;12.90;99.90
15115;DHT22;7658;51.456;7.622;2023-11-19T10:30:25;12.90;99.90
15115;DHT22;7658;51.456;7.622;2023-11-19T10:33:10;13.00;99.90
15115;DHT22;7658;51.456;7.622;2023-11-19T10:35:54;13.00;99.90
15115;DHT22;7658;51.456;7.622;2023-11-19T10:38:22;13.10;99.90
15115;DHT22;7658;51.456;7.622;2023-11-19T10:40:49;13.00;99.90
15115;DHT22;7658;51.456;7.622;2023-11-19T10:43:16;12.90;99.90
15115;DHT22;7658;51.456;7.622;2023-11-19T10:45:43;12.80;99.90
15115;DHT22;7658;51.456;7.622;2023-11-19T10:48:09;12.80;99.90
15115;DHT22;7658;51.456;7.622;2023-11-19T10:50:36;12.70;99.90
15115;DHT22;7658;51.456;7.622;2023-11-19T10:53:04;12.80;99.90
15115;DHT22;7658;51.456;7.622;2023-11-19T10:55:32;12.70;99.90
15115;DHT22;7658;51.456;7.622;2023-11-19T10:58:03;12.60;99.90
15115;DHT22;7658;51.456;7.622;2023-11-19T11:00:54;12.60;99.90
15115;DHT22;7658;51.456;7.622;2023-11-19T11:03:24;12.50;99.90
15115;DHT22;7658;51.456;7.622;2023-11-19T11:05:51;12.50;99.90
15115;DHT22;7658;51.456;7.622;2023-11-19T11:08:19;12.40;99.90
15115;DHT22;7658;51.456;7.622;2023-11-19T11:10:54;12.50;99.90
15115;DHT22;7658;51.456;7.622;2023-11-19T11:13:22;12.50;99.90
15115;DHT22;7658;51.456;7.622;2023-11-19T11:15:52;12.50;99.90
15115;DHT22;7658;51.456;7.622;2023-11-19T11:18:20;12.50;99.90
15115;DHT22;7658;51.456;7.622;2023-11-19T11:20:46;12.50;99.90
15115;DHT22;7658;51.456;7.622;2023-11-19T11:29:35;12.40;99.90
15115;DHT22;7658;51.456;7.622;2023-11-19T11:34:35;12.40;99.90
15115;DHT22;7658;51.456;7.622;2023-11-19T11:37:18;12.40;99.90
15115;DHT22;7658;51.456;7.622;2023-11-19T11:39:46;12.40;99.90
15115;DHT22;7658;51.456;7.622;2023-11-19T11:45:08;12.40;99.90
15115;DHT22;7658;51.456;7.622;2023-11-19T11:50:17;12.50;99.90
15115;DHT22;7658;51.456;7.622;2023-11-19T11:55:52;12.40;99.90
15115;DHT22;7658;51.456;7.622;2023-11-19T11:58:27;12.50;99.90
15115;DHT22;7658;51.456;7.622;2023-11-19T12:00:57;12.50;99.90
15115;DHT22;7658;51.456;7.622;2023-11-19T12:03:27;12.60;99.90
15115;DHT22;7658;51.456;7.622;2023-11-19T12:05:54;12.70;99.90
15115;DHT22;7658;51.456;7.622;2023-11-19T12:08:25;12.90;99.90
15115;DHT22;7658;51.456;7.622;2023-11-19T12:10:52;13.20;99.90
15115;DHT22;7658;51.456;7.622;2023-11-19T12:13:20;13.40;99.90
15115;DHT22;7658;51.456;7.622;2023-11-19T12:18:24;13.70;99.90
15115;DHT22;7658;51.456;7.622;2023-11-19T12:20:51;13.80;99.90
15115;DHT22;7658;51.456;7.622;2023-11-19T12:23:17;13.80;99.90
15115;DHT22;7658;51.456;7.622;2023-11-19T12:25:43;13.70;99.90
15115;DHT22;7658;51.456;7.622;2023-11-19T12:28:14;13.50;99.90
15115;DHT22;7658;51.456;7.622;2023-11-19T12:30:43;13.30;99.90
15115;DHT22;7658;51.456;7.622;2023-11-19T12:33:10;13.20;99.90
15115;DHT22;7658;51.456;7.622;2023-11-19T12:35:46;13.10;99.90
15115;DHT22;7658;51.456;7.622;2023-11-19T12:38:38;13.00;99.90
15115;DHT22;7658;51.456;7.622;2023-11-19T12:41:05;13.10;99.90
15115;DHT22;7658;51.456;7.622;2023-11-19T12:43:31;13.20;99.90
15115;DHT22;7658;51.456;7.622;2023-11-19T12:45:57;13.20;99.90
15115;DHT22;7658;51.456;7.622;2023-11-19T12:48:23;13.20;99.90
15115;DHT22;7658;51.456;7.622;2023-11-19T12:50:57;13.00;99.90
15115;DHT22;7658;51.456;7.622;2023-11-19T12:53:24;12.90;99.90
15115;DHT22;7658;51.456;7.622;2023-11-19T12:55:51;12.80;99.90
15115;DHT22;7658;51.456;7.622;2023-11-19T12:58:30;12.70;99.90
15115;DHT22;7658;51.456;7.622;2023-11-19T13:01:06;12.70;99.90
15115;DHT22;7658;51.456;7.622;2023-11-19T13:03:34;12.80;99.90
15115;DHT22;7658;51.456;7.622;2023-11-19T13:06:04;12.80;99.90
15115;DHT22;7658;51.456;7.622;2023-11-19T13:08:50;12.80;99.90
15115;DHT22;7658;51.456;7.622;2023-11-19T13:11:33;12.80;99.90
15115;DHT22;7658;51.456;7.622;2023-11-19T13:14:03;12.90;99.90
15115;DHT22;7658;51.456;7.622;2023-11-19T13:16:36;12.80;99.90
15115;DHT22;7658;51.456;7.622;2023-11-19T13:19:02;12.80;99.90
15115;DHT22;7658;51.456;7.622;2023-11-19T13:21:28;12.80;99.90
15115;DHT22;7658;51.456;7.622;2023-11-19T13:23:55;12.70;99.90
15115;DHT22;7658;51.456;7.622;2023-11-19T13:26:22;12.70;99.90
15115;DHT22;7658;51.456;7.622;2023-11-19T13:28:48;12.70;99.90
15115;DHT22;7658;51.456;7.622;2023-11-19T13:31:13;12.60;99.90
15115;DHT22;7658;51.456;7.622;2023-11-19T13:33:40;12.60;99.90
15115;DHT22;7658;51.456;7.622;2023-11-19T13:36:06;12.60;99.90
15115;DHT22;7658;51.456;7.622;2023-11-19T13:38:34;12.60;99.90
15115;DHT22;7658;51.456;7.622;2023-11-19T13:41:03;12.60;99.90
15115;DHT22;7658;51.456;7.622;2023-11-19T13:43:32;12.60;99.90
15115;DHT22;7658;51.456;7.622;2023-11-19T13:45:58;12.60;99.90
15115;DHT22;7658;51.456;7.622;2023-11-19T13:48:24;12.60;99.90
15115;DHT22;7658;51.456;7.622;2023-11-19T13:50:52;12.60;99.90
15115;DHT22;7658;51.456;7.622;2023-11-19T13:53:18;12.60;99.90
15115;DHT22;7658;51.456;7.622;2023-11-19T13:55:44;12.60;99.90
15115;DHT22;7658;51.456;7.622;2023-11-19T13:58:10;12.60;99.90
15115;DHT22;7658;51.456;7.622;2023-11-19T14:00:36;12.60;99.90
15115;DHT22;7658;51.456;7.622;2023-11-19T14:03:02;12.60;99.90
15115;DHT22;7658;51.456;7.622;2023-11-19T14:05:28;12.50;99.90
15115;DHT22;7658;51.456;7.622;2023-11-19T14:07:54;12.40;99.90
15115;DHT22;7658;51.456;7.622;2023-11-19T14:10:22;12.50;99.90
15115;DHT22;7658;51.456;7.622;2023-11-19T14:12:48;12.50;99.90
15115;DHT22;7658;51.456;7.622;2023-11-19T14:15:15;12.50;99.90
15115;DHT22;7658;51.456;7.622;2023-11-19T14:17:43;12.40;99.90
15115;DHT22;7658;51.456;7.622;2023-11-19T14:20:09;12.30;99.90
15115;DHT22;7658;51.456;7.622;2023-11-19T14:22:43;12.20;99.90
15115;DHT22;7658;51.456;7.622;2023-11-19T14:25:10;12.10;99.90
15115;DHT22;7658;51.456;7.622;2023-11-19T14:27:43;12.00;99.90
15115;DHT22;7658;51.456;7.622;2023-11-19T14:30:10;12.00;99.90
15115;DHT22;7658;51.456;7.622;2023-11-19T14:32:37;12.00;99.90
15115;DHT22;7658;51.456;7.622;2023-11-19T14:35:04;11.90;99.90
15115;DHT22;7658;51.456;7.622;2023-11-19T14:37:30;11.90;99.90
15115;DHT22;7658;51.456;7.622;2023-11-19T14:39:56;11.90;99.90
15115;DHT22;7658;51.456;7.622;2023-11-19T14:42:23;11.90;99.90
15115;DHT22;7658;51.456;7.622;2023-11-19T14:44:51;11.90;99.90
15115;DHT22;7658;51.456;7.622;2023-11-19T14:47:18;11.90;99.90
15115;DHT22;7658;51.456;7.622;2023-11-19T14:49:44;11.90;99.90
15115;DHT22;7658;51.456;7.622;2023-11-19T14:52:10;12.00;99.90
15115;DHT22;7658;51.456;7.622;2023-11-19T14:54:37;12.00;99.90
15115;DHT22;7658;51.456;7.622;2023-11-19T14:57:04;12.00;99.90
15115;DHT22;7658;51.456;7.622;2023-11-19T14:59:30;11.90;99.90
15115;DHT22;7658;51.456;7.622;2023-11-19T15:01:55;11.80;99.90
15115;DHT22;7658;51.456;7.622;2023-11-19T15:04:22;11.70;99.90
15115;DHT22;7658;51.456;7.622;2023-11-19T15:06:48;11.70;99.90
15115;DHT22;7658;51.456;7.622;2023-11-19T15:09:14;11.60;99.90
15115;DHT22;7658;51.456;7.622;2023-11-19T15:11:45;11.60;99.90
15115;DHT22;7658;51.456;7.622;2023-11-19T15:14:14;11.60;99.90
15115;DHT22;7658;51.456;7.622;2023-11-19T15:16:45;11.50;99.90
15115;DHT22;7658;51.456;7.622;2023-11-19T15:19:11;11.60;99.90
15115;DHT22;7658;51.456;7.622;2023-11-19T15:21:41;11.50;99.90
15115;DHT22;7658;51.456;7.622;2023-11-19T15:24:08;11.50;99.90
15115;DHT22;7658;51.456;7.622;2023-11-19T15:26:35;11.50;99.90
15115;DHT22;7658;51.456;7.622;2023-11-19T15:29:01;11.40;99.90
15115;DHT22;7658;51.456;7.622;2023-11-19T15:31:28;11.30;99.90
15115;DHT22;7658;51.456;7.622;2023-11-19T15:33:54;11.30;99.90
15115;DHT22;7658;51.456;7.622;2023-11-19T15:36:20;11.20;99.90
15115;DHT22;7658;51.456;7.622;2023-11-19T15:38:46;11.20;99.90
15115;DHT22;7658;51.456;7.622;2023-11-19T15:41:12;11.20;99.90
15115;DHT22;7658;51.456;7.622;2023-11-19T15:43:38;11.10;99.90
15115;DHT22;7658;51.456;7.622;2023-11-19T15:46:10;11.10;99.90
15115;DHT22;7658;51.456;7.622;2023-11-19T15:48:36;11.10;99.90
15115;DHT22;7658;51.456;7.622;2023-11-19T15:51:02;11.10;99.90
15115;DHT22;7658;51.456;7.622;2023-11-19T15:53:31;11.00;99.90
15115;DHT22;7658;51.456;7.622;2023-11-19T15:56:00;11.00;99.90
15115;DHT22;7658;51.456;7.622;2023-11-19T15:58:27;11.00;99.90
15115;DHT22;7658;51.456;7.622;2023-11-19T16:00:52;11.00;99.90
15115;DHT22;7658;51.456;7.622;2023-11-19T16:03:18;11.00;99.90
15115;DHT22;7658;51.456;7.622;2023-11-19T16:05:44;11.00;99.90
15115;DHT22;7658;51.456;7.622;2023-11-19T16:08:10;10.90;99.90